メインページ
METAR-TAF:

METAR-TAF

空港 :

ヘイズルトン, ペンシルバニア州, アメリカ合衆国

緯度: 40-59-12N, 経度: 075-59-42W, 海抜: 489m

現時点の気象観測

当レポートは11分前の15:57(UTC)に作成
南東の風 6kt
気温 -8°C
湿度 79%
気圧 1027 hPa
視程: 0.8km
高度1100ftの曇り

METAR: KHZL 181557Z AUTO 14006KT 1/2SM SN OVC011 M08/M11 A3033 RMK AO2

時間: 11:08 (16:08 UTC)


TAF: 見つかりません

4,000以上の空港の気象観測と天気予報(METAR報とTAF報)

利用可能な観測所は地図上に黄色い丸と赤い丸で示す。

丸の上にカーソルを重ねると観測所名を参照できる。

次にクリックすると気象観測と天気予報を参照できる。

マップの切り替え:黒色「×」印の緑ボタンをクリックして拡大、「-」印の緑ボタンをクリックして縮小、緑色の三角印をクリックして隣りの地図に切り替え


METAR-TAF: